Time;durP1;ratioP1;P1;durP2;ratioP2;P2;SDS_P1;SDS_P2;PMS_P1;PMS_P2;Temp;Humidity;BMP_temperature;BMP_pressure;BME280_temperature;BME280_humidity;BME280_pressure;Samples;Min_cycle;Max_cycle;Signal;HPM_P1;HPM_P2
2023/07/21 00:01:03;;;;;;;;;;;;;;;19.36;57.91;100179.53;4985537;28;7005;-71
2023/07/21 00:03:30;;;;;;;;;;;;;;;19.34;57.75;100183.84;4984064;28;7462;-71
2023/07/21 00:05:56;;;;;;;;;;;;;;;19.31;58.53;100183.81;4994777;28;6823;-71
2023/07/21 00:08:24;;;;;;;;;;;;;;;19.29;58.43;100186.41;4992991;28;7391;-71
2023/07/21 00:10:50;;;;;;;;;;;;;;;19.25;58.54;100172.53;5011961;28;7059;-71
2023/07/21 00:13:15;;;;;;;;;;;;;;;19.23;58.46;100168.16;5012955;28;6807;-71
2023/07/21 00:15:42;;;;;;;;;;;;;;;19.21;58.21;100178.53;4984354;28;7232;-71
2023/07/21 00:18:07;;;;;;;;;;;;;;;19.22;58.61;100172.50;5013055;28;6938;-71
2023/07/21 00:20:33;;;;;;;;;;;;;;;19.23;58.35;100171.66;5001083;28;7638;-71
2023/07/21 00:22:58;;;;;;;;;;;;;;;19.24;58.67;100162.09;4995717;28;7506;-71
2023/07/21 00:25:24;;;;;;;;;;;;;;;19.26;58.53;100161.28;5012849;28;7298;-71
2023/07/21 00:27:49;;;;;;;;;;;;;;;19.29;59.20;100166.47;4994181;28;6958;-71
2023/07/21 00:30:15;;;;;;;;;;;;;;;19.33;58.45;100163.94;5014220;28;6962;-71
2023/07/21 00:32:41;;;;;;;;;;;;;;;19.33;58.30;100167.38;4994745;28;6784;-71
2023/07/21 00:35:08;;;;;;;;;;;;;;;19.35;58.35;100167.41;4997705;28;6982;-71
2023/07/21 00:37:34;;;;;;;;;;;;;;;19.36;58.16;100171.75;4993102;28;6819;-71
2023/07/21 00:40:00;;;;;;;;;;;;;;;19.35;58.30;100173.44;4995524;28;7059;-71
2023/07/21 00:42:26;;;;;;;;;;;;;;;19.34;58.08;100170.88;5009802;28;6949;-71
2023/07/21 00:44:52;;;;;;;;;;;;;;;19.33;57.87;100164.78;4997921;28;6812;-70
2023/07/21 00:47:17;;;;;;;;;;;;;;;19.32;58.46;100169.97;5013896;28;6946;-71
2023/07/21 00:49:43;;;;;;;;;;;;;;;19.32;58.74;100172.59;4997506;28;6807;-71
2023/07/21 00:52:12;;;;;;;;;;;;;;;19.29;58.69;100168.22;5014992;28;6800;-71
2023/07/21 00:54:38;;;;;;;;;;;;;;;19.28;58.60;100166.50;5010800;28;7001;-71
2023/07/21 00:57:04;;;;;;;;;;;;;;;19.26;58.89;100162.97;5000019;28;7233;-71
2023/07/21 00:59:29;;;;;;;;;;;;;;;19.27;58.64;100167.34;4997075;28;6804;-71
2023/07/21 01:01:56;;;;;;;;;;;;;;;19.27;58.24;100154.34;4997998;28;6851;-71
2023/07/21 01:04:23;;;;;;;;;;;;;;;19.27;58.36;100156.97;5009910;28;6879;-71
2023/07/21 01:06:49;;;;;;;;;;;;;;;19.26;58.48;100162.97;4995085;28;6996;-71
2023/07/21 01:09:16;;;;;;;;;;;;;;;19.25;58.93;100162.13;5012840;28;7129;-71
2023/07/21 01:11:42;;;;;;;;;;;;;;;19.25;58.81;100167.31;4994878;28;8004;-71
2023/07/21 01:14:09;;;;;;;;;;;;;;;19.26;58.89;100169.06;4993814;28;6964;-71
2023/07/21 01:16:37;;;;;;;;;;;;;;;19.31;58.89;100179.50;4995341;28;7271;-71
2023/07/21 01:19:04;;;;;;;;;;;;;;;19.36;58.97;100174.34;4996484;28;6816;-71
2023/07/21 01:21:30;;;;;;;;;;;;;;;19.39;59.34;100137.97;4999267;28;7069;-71
2023/07/21 01:24:08;;;;;;;;;;;;;;;19.42;59.17;100112.03;4998558;28;6990;-70
2023/07/21 01:26:37;;;;;;;;;;;;;;;19.39;59.07;100112.00;4999665;28;7339;-71
2023/07/21 01:29:08;;;;;;;;;;;;;;;19.29;59.30;100114.53;5010411;28;6799;-69
2023/07/21 01:31:35;;;;;;;;;;;;;;;19.24;59.48;100117.94;5000494;28;6812;-70
2023/07/21 01:34:02;;;;;;;;;;;;;;;19.20;59.63;100134.38;4994651;28;6871;-70
2023/07/21 01:36:28;;;;;;;;;;;;;;;19.21;59.97;100142.16;4994277;28;7009;-70
2023/07/21 01:38:54;;;;;;;;;;;;;;;19.21;59.95;100149.09;5013103;28;6983;-70
2023/07/21 01:41:20;;;;;;;;;;;;;;;19.23;60.37;100150.88;5009282;28;6879;-70
2023/07/21 01:43:46;;;;;;;;;;;;;;;19.23;60.14;100147.38;5012123;28;7573;-70
2023/07/21 01:46:12;;;;;;;;;;;;;;;19.25;60.17;100151.75;4995830;28;7206;-71
2023/07/21 01:48:37;;;;;;;;;;;;;;;19.23;60.40;100140.47;4984610;28;7218;-71
2023/07/21 01:51:05;;;;;;;;;;;;;;;19.24;60.50;100136.13;5016778;28;6795;-71
2023/07/21 01:53:35;;;;;;;;;;;;;;;19.24;60.19;100144.81;4994694;28;6829;-71
2023/07/21 01:56:18;;;;;;;;;;;;;;;19.23;60.14;100139.59;4994269;28;6811;-70
2023/07/21 01:58:46;;;;;;;;;;;;;;;19.20;60.34;100135.22;5012877;28;6819;-71
2023/07/21 02:01:14;;;;;;;;;;;;;;;19.18;60.70;100123.97;4994040;28;6803;-71
2023/07/21 02:03:41;;;;;;;;;;;;;;;19.16;60.39;100125.69;4994344;28;7946;-70
2023/07/21 02:06:16;;;;;;;;;;;;;;;19.16;60.31;100117.88;5014933;28;6795;-72
2023/07/21 02:08:42;;;;;;;;;;;;;;;19.15;60.64;100109.22;4996813;28;6999;-72
2023/07/21 02:11:08;;;;;;;;;;;;;;;19.16;60.52;100115.28;4996564;28;6975;-72
2023/07/21 02:13:33;;;;;;;;;;;;;;;19.17;60.48;100106.63;4996222;28;6971;-72
2023/07/21 02:15:59;;;;;;;;;;;;;;;19.17;60.21;100105.75;4993917;28;6771;-72
2023/07/21 02:18:24;;;;;;;;;;;;;;;19.20;60.35;100101.47;4979330;28;6802;-72
2023/07/21 02:20:50;;;;;;;;;;;;;;;19.19;59.94;100094.53;5014570;28;6780;-72
2023/07/21 02:23:15;;;;;;;;;;;;;;;19.17;60.70;100088.47;5011243;28;6784;-72
2023/07/21 02:25:42;;;;;;;;;;;;;;;19.15;61.13;100092.78;5000150;28;6788;-72
2023/07/21 02:28:08;;;;;;;;;;;;;;;19.12;61.02;100088.41;5016061;28;6891;-72
2023/07/21 02:30:33;;;;;;;;;;;;;;;19.08;60.36;100083.19;5002840;28;6783;-72
2023/07/21 02:32:59;;;;;;;;;;;;;;;19.07;60.82;100089.25;5008005;28;7028;-72
2023/07/21 02:35:25;;;;;;;;;;;;;;;19.05;61.17;100083.19;5000334;28;6879;-73
2023/07/21 02:37:50;;;;;;;;;;;;;;;19.04;60.80;100084.03;5009362;28;6783;-73
2023/07/21 02:40:17;;;;;;;;;;;;;;;19.06;60.79;100092.69;5015102;28;6788;-73
2023/07/21 02:42:43;;;;;;;;;;;;;;;19.09;61.48;100097.91;4998152;28;7035;-73
2023/07/21 02:45:09;;;;;;;;;;;;;;;19.09;61.22;100096.19;4999000;28;6788;-73
2023/07/21 02:47:34;;;;;;;;;;;;;;;19.12;61.23;100100.53;4992183;28;7006;-74
2023/07/21 02:50:00;;;;;;;;;;;;;;;19.12;60.78;100108.31;5016297;28;6807;-73
2023/07/21 02:52:27;;;;;;;;;;;;;;;19.13;60.80;100116.13;4996777;28;6795;-73
2023/07/21 02:54:53;;;;;;;;;;;;;;;19.12;61.17;100116.09;5012355;28;6888;-73
2023/07/21 02:57:18;;;;;;;;;;;;;;;19.14;60.93;100119.63;5001041;28;7196;-73
2023/07/21 02:59:45;;;;;;;;;;;;;;;19.12;61.34;100117.00;4997269;28;6953;-73
2023/07/21 03:02:12;;;;;;;;;;;;;;;19.12;60.91;100119.59;5013158;28;7030;-72
2023/07/21 03:04:42;;;;;;;;;;;;;;;19.11;61.36;100114.38;5015632;28;7025;-72
2023/07/21 03:07:08;;;;;;;;;;;;;;;19.11;61.29;100119.56;5001824;28;7338;-74
2023/07/21 03:09:33;;;;;;;;;;;;;;;19.10;60.80;100107.44;4983205;28;8638;-72
2023/07/21 03:11:59;;;;;;;;;;;;;;;19.10;61.19;100105.72;5000023;28;7180;-72
2023/07/21 03:14:25;;;;;;;;;;;;;;;19.10;61.24;100104.84;4999488;28;6887;-72
2023/07/21 03:16:51;;;;;;;;;;;;;;;19.10;61.57;100100.53;5003368;28;6977;-72
2023/07/21 03:19:16;;;;;;;;;;;;;;;19.09;61.11;100100.50;4999225;28;6783;-72
2023/07/21 03:21:43;;;;;;;;;;;;;;;19.08;61.54;100109.16;5004775;28;7159;-72
2023/07/21 03:24:08;;;;;;;;;;;;;;;19.04;61.09;100100.47;5015726;28;6788;-72
2023/07/21 03:26:34;;;;;;;;;;;;;;;19.01;60.97;100095.25;4999727;28;6911;-71
2023/07/21 03:29:00;;;;;;;;;;;;;;;18.98;61.23;100090.03;4997467;28;7912;-72
2023/07/21 03:31:25;;;;;;;;;;;;;;;18.94;61.26;100089.13;5004087;28;6943;-72
2023/07/21 03:33:51;;;;;;;;;;;;;;;18.90;61.04;100084.75;5014283;28;7152;-73
2023/07/21 03:36:19;;;;;;;;;;;;;;;18.85;60.96;100076.06;5010492;28;6795;-72
2023/07/21 03:38:44;;;;;;;;;;;;;;;18.81;61.24;100085.53;5014084;28;6811;-72
2023/07/21 03:41:10;;;;;;;;;;;;;;;18.76;60.89;100083.75;5008602;28;6860;-72
2023/07/21 03:43:39;;;;;;;;;;;;;;;18.71;61.42;100087.16;4992952;28;7138;-72
2023/07/21 03:46:06;;;;;;;;;;;;;;;18.65;61.58;100081.94;5019697;28;6848;-72
2023/07/21 03:48:33;;;;;;;;;;;;;;;18.60;61.47;100087.09;5010483;28;8142;-71
2023/07/21 03:51:04;;;;;;;;;;;;;;;18.56;61.09;100087.03;5009525;28;7902;-72
2023/07/21 03:53:30;;;;;;;;;;;;;;;18.52;61.34;100086.13;5010050;28;7166;-72
2023/07/21 03:55:56;;;;;;;;;;;;;;;18.48;61.75;100078.28;5004160;28;6808;-72
2023/07/21 03:58:22;;;;;;;;;;;;;;;18.45;61.40;100081.72;5006509;28;8728;-72
2023/07/21 04:00:48;;;;;;;;;;;;;;;18.43;61.92;100091.22;4990923;28;6992;-72
2023/07/21 04:03:14;;;;;;;;;;;;;;;18.40;61.37;100084.25;5019831;28;6799;-72
2023/07/21 04:05:40;;;;;;;;;;;;;;;18.39;61.77;100079.94;5005762;28;6808;-72
2023/07/21 04:08:05;;;;;;;;;;;;;;;18.38;61.85;100078.19;4987651;28;7143;-72
2023/07/21 04:10:32;;;;;;;;;;;;;;;18.39;61.84;100090.31;5021374;28;6804;-72
2023/07/21 04:12:57;;;;;;;;;;;;;;;18.39;62.21;100082.53;5005871;28;7025;-72
2023/07/21 04:15:25;;;;;;;;;;;;;;;18.41;62.01;100087.75;5003417;28;6779;-72
2023/07/21 04:17:54;;;;;;;;;;;;;;;18.40;62.30;100094.66;4983456;28;7257;-72
2023/07/21 04:20:22;;;;;;;;;;;;;;;18.41;62.42;100086.00;5012346;28;6783;-72
2023/07/21 04:22:48;;;;;;;;;;;;;;;18.44;62.47;100096.41;5005285;28;6904;-72
2023/07/21 04:25:15;;;;;;;;;;;;;;;18.46;62.06;100094.72;5004859;28;6804;-72
2023/07/21 04:27:41;;;;;;;;;;;;;;;18.51;62.17;100092.19;5020295;28;6787;-72
2023/07/21 04:30:07;;;;;;;;;;;;;;;18.56;62.75;100097.41;5005101;28;6780;-72
2023/07/21 04:32:33;;;;;;;;;;;;;;;18.60;62.47;100091.38;5002489;28;7220;-72
2023/07/21 04:34:59;;;;;;;;;;;;;;;18.64;62.61;100092.28;5019831;28;7277;-72
2023/07/21 04:37:25;;;;;;;;;;;;;;;18.69;62.99;100094.06;5001348;28;6832;-72
2023/07/21 04:39:51;;;;;;;;;;;;;;;18.73;62.07;100094.97;5005266;28;7014;-72
2023/07/21 04:42:18;;;;;;;;;;;;;;;18.77;62.89;100088.94;5008112;28;6983;-72
2023/07/21 04:44:44;;;;;;;;;;;;;;;18.83;62.78;100090.72;5008340;28;6829;-72
2023/07/21 04:47:10;;;;;;;;;;;;;;;18.91;63.16;100089.06;5012011;28;6997;-72
2023/07/21 04:49:35;;;;;;;;;;;;;;;19.02;62.91;100089.22;5008538;28;7161;-72
2023/07/21 04:52:02;;;;;;;;;;;;;;;19.11;62.54;100078.91;5005163;28;6943;-72
2023/07/21 04:54:28;;;;;;;;;;;;;;;19.24;63.23;100076.38;5018607;28;7018;-72
2023/07/21 04:56:53;;;;;;;;;;;;;;;19.31;62.93;100083.38;5010580;28;6787;-72
2023/07/21 04:59:19;;;;;;;;;;;;;;;19.40;62.85;100086.03;5024721;28;7249;-72
2023/07/21 05:01:45;;;;;;;;;;;;;;;19.49;63.08;100082.59;5005849;28;7003;-72
2023/07/21 05:04:12;;;;;;;;;;;;;;;19.58;62.42;100089.59;5016871;28;7334;-72
2023/07/21 05:06:37;;;;;;;;;;;;;;;19.63;62.77;100087.03;5002971;28;7537;-72
2023/07/21 05:09:03;;;;;;;;;;;;;;;19.67;62.78;100086.19;5007893;28;6783;-72
2023/07/21 05:11:28;;;;;;;;;;;;;;;19.75;62.47;100089.69;5006256;28;6815;-72
2023/07/21 05:13:56;;;;;;;;;;;;;;;19.82;62.72;100083.66;5003998;28;7630;-72
2023/07/21 05:16:22;;;;;;;;;;;;;;;19.90;62.44;100086.28;5007774;28;6858;-72
2023/07/21 05:18:47;;;;;;;;;;;;;;;19.94;62.57;100085.50;5018721;28;8135;-72
2023/07/21 05:21:13;;;;;;;;;;;;;;;19.97;61.98;100085.50;4991526;28;6962;-72
2023/07/21 05:23:39;;;;;;;;;;;;;;;19.98;61.45;100082.03;4985168;28;7227;-72
2023/07/21 05:26:04;;;;;;;;;;;;;;;19.97;61.61;100084.63;5001478;28;7220;-73
2023/07/21 05:28:30;;;;;;;;;;;;;;;19.99;61.30;100080.31;5017872;28;7015;-72
2023/07/21 05:30:56;;;;;;;;;;;;;;;20.02;61.34;100076.81;5019689;28;6963;-72
2023/07/21 05:33:22;;;;;;;;;;;;;;;20.12;62.58;100079.47;5000751;28;6860;-72
2023/07/21 05:35:47;;;;;;;;;;;;;;;20.33;62.80;100083.00;5004105;28;6795;-72
2023/07/21 05:38:13;;;;;;;;;;;;;;;20.56;62.55;100091.75;5036995;28;6795;-72
2023/07/21 05:40:40;;;;;;;;;;;;;;;20.74;61.98;100089.16;5008367;28;6986;-72
2023/07/21 05:43:05;;;;;;;;;;;;;;;20.91;62.25;100094.41;5011292;28;6966;-72
2023/07/21 05:45:31;;;;;;;;;;;;;;;21.11;62.50;100090.09;5015385;28;6954;-72
2023/07/21 05:47:56;;;;;;;;;;;;;;;21.28;61.97;100088.31;5006096;28;6784;-72
2023/07/21 05:50:22;;;;;;;;;;;;;;;21.44;61.83;100091.78;5009836;28;6987;-72
2023/07/21 05:52:52;;;;;;;;;;;;;;;21.58;61.47;100081.31;5033396;28;6783;-71
2023/07/21 05:55:17;;;;;;;;;;;;;;;21.68;60.66;100081.31;5003932;28;6824;-72
2023/07/21 05:57:43;;;;;;;;;;;;;;;21.73;60.56;100083.06;5012330;28;7460;-72
2023/07/21 06:00:14;;;;;;;;;;;;;;;21.77;60.07;100078.66;5003135;28;7134;-72
2023/07/21 06:02:40;;;;;;;;;;;;;;;21.85;59.71;100089.09;4988069;28;11768;-72
2023/07/21 06:05:06;;;;;;;;;;;;;;;21.90;59.80;100083.00;5003348;28;6933;-72
2023/07/21 06:07:32;;;;;;;;;;;;;;;21.92;59.21;100089.06;5011617;28;6930;-72
2023/07/21 06:09:57;;;;;;;;;;;;;;;21.93;59.14;100092.56;5019879;28;6800;-72
2023/07/21 06:12:23;;;;;;;;;;;;;;;21.93;59.30;100087.34;5029102;28;6962;-72
2023/07/21 06:14:48;;;;;;;;;;;;;;;21.97;59.18;100089.03;5008259;28;7241;-72
2023/07/21 06:17:14;;;;;;;;;;;;;;;22.00;58.81;100090.78;5010854;28;7169;-72
2023/07/21 06:19:39;;;;;;;;;;;;;;;22.07;58.82;100079.44;5027252;28;8011;-72
2023/07/21 06:22:05;;;;;;;;;;;;;;;22.21;58.94;100089.78;5027408;28;7276;-72
2023/07/21 06:24:30;;;;;;;;;;;;;;;22.30;58.78;100089.75;5015747;28;6877;-72
2023/07/21 06:26:56;;;;;;;;;;;;;;;22.36;58.41;100094.09;5007662;28;9048;-72
2023/07/21 06:29:22;;;;;;;;;;;;;;;22.39;58.16;100082.75;5008379;28;6827;-72
2023/07/21 06:31:49;;;;;;;;;;;;;;;22.43;57.89;100084.47;5009856;28;6809;-72
2023/07/21 06:34:14;;;;;;;;;;;;;;;22.46;57.72;100087.06;5011073;28;6807;-72
2023/07/21 06:36:40;;;;;;;;;;;;;;;22.53;57.76;100086.19;5023493;28;6768;-72
2023/07/21 06:39:06;;;;;;;;;;;;;;;22.62;58.23;100074.78;4994191;28;6969;-72
2023/07/21 06:41:31;;;;;;;;;;;;;;;22.72;57.42;100080.84;5013692;28;6904;-72
2023/07/21 06:43:57;;;;;;;;;;;;;;;22.79;56.95;100072.06;5000081;28;7031;-72
2023/07/21 06:46:22;;;;;;;;;;;;;;;22.88;57.10;100074.59;5009010;28;6797;-72
2023/07/21 06:48:48;;;;;;;;;;;;;;;22.97;57.43;100080.63;5022787;28;6800;-72
2023/07/21 06:51:13;;;;;;;;;;;;;;;23.05;56.30;100077.97;5010081;28;6775;-72
2023/07/21 06:53:39;;;;;;;;;;;;;;;23.12;56.54;100080.50;5022104;28;6828;-72
2023/07/21 06:56:04;;;;;;;;;;;;;;;23.25;56.37;100076.03;5020330;28;6844;-73
2023/07/21 06:58:30;;;;;;;;;;;;;;;23.37;55.81;100071.59;4987551;28;7262;-72
2023/07/21 07:00:57;;;;;;;;;;;;;;;23.51;56.33;100067.06;5006830;28;6796;-72
2023/07/21 07:03:23;;;;;;;;;;;;;;;23.65;55.90;100061.69;5016983;28;7716;-72
2023/07/21 07:05:49;;;;;;;;;;;;;;;23.81;55.77;100071.97;5004121;28;7007;-72
2023/07/21 07:08:15;;;;;;;;;;;;;;;23.94;55.31;100062.22;5012220;28;6966;-72
2023/07/21 07:10:42;;;;;;;;;;;;;;;24.13;55.79;100055.00;5013527;28;6934;-72
2023/07/21 07:13:07;;;;;;;;;;;;;;;24.40;55.61;100068.59;5011565;28;6799;-72
2023/07/21 07:15:33;;;;;;;;;;;;;;;24.74;55.23;100061.97;5024134;28;7148;-72
2023/07/21 07:17:58;;;;;;;;;;;;;;;25.08;55.04;100056.22;5023001;28;6788;-72
2023/07/21 07:20:25;;;;;;;;;;;;;;;25.36;53.26;100056.56;5023205;28;6792;-72
2023/07/21 07:22:50;;;;;;;;;;;;;;;25.50;52.52;100055.47;5022506;28;6862;-72
2023/07/21 07:25:16;;;;;;;;;;;;;;;25.56;52.02;100049.25;5022817;28;6839;-72
2023/07/21 07:27:41;;;;;;;;;;;;;;;25.60;52.17;100054.41;5022648;28;7048;-72
2023/07/21 07:30:07;;;;;;;;;;;;;;;25.71;52.10;100053.31;5007451;28;6779;-72
2023/07/21 07:32:33;;;;;;;;;;;;;;;25.90;51.62;100052.03;5003209;28;6855;-72
2023/07/21 07:34:58;;;;;;;;;;;;;;;26.13;51.96;100058.53;5020804;28;7277;-72
2023/07/21 07:37:26;;;;;;;;;;;;;;;26.38;51.72;100050.16;5003448;28;6949;-73
2023/07/21 07:39:51;;;;;;;;;;;;;;;26.69;51.15;100052.03;5003964;28;7936;-73
2023/07/21 07:42:17;;;;;;;;;;;;;;;26.92;50.24;100053.25;5002621;28;6872;-73
2023/07/21 07:44:43;;;;;;;;;;;;;;;27.02;49.73;100054.72;5021061;28;6808;-72
2023/07/21 07:47:08;;;;;;;;;;;;;;;27.07;48.99;100051.13;5006952;28;6967;-72
2023/07/21 07:49:35;;;;;;;;;;;;;;;27.06;48.41;100052.03;4992329;28;6931;-71
2023/07/21 07:52:01;;;;;;;;;;;;;;;26.98;48.17;100057.47;4978574;28;6999;-71
2023/07/21 07:54:26;;;;;;;;;;;;;;;26.88;48.00;100059.50;4995597;28;8030;-71
2023/07/21 07:56:52;;;;;;;;;;;;;;;26.78;47.50;100061.44;5011402;28;6813;-71
2023/07/21 07:59:18;;;;;;;;;;;;;;;26.64;47.44;100055.69;5012739;28;7199;-71
2023/07/21 08:01:44;;;;;;;;;;;;;;;26.51;47.11;100058.59;4993361;28;6800;-71
2023/07/21 08:04:09;;;;;;;;;;;;;;;26.42;47.00;100058.81;4987238;28;7159;-71
2023/07/21 08:06:35;;;;;;;;;;;;;;;26.35;47.11;100058.06;4994463;28;6951;-71
2023/07/21 08:09:00;;;;;;;;;;;;;;;26.26;46.85;100063.53;5012213;28;7011;-71
2023/07/21 08:11:25;;;;;;;;;;;;;;;26.13;46.63;100063.78;4999292;28;6789;-71
2023/07/21 08:13:51;;;;;;;;;;;;;;;26.04;47.05;100070.13;4995915;28;7102;-71
2023/07/21 08:16:16;;;;;;;;;;;;;;;26.00;46.83;100073.69;5001136;28;6787;-71
2023/07/21 08:18:42;;;;;;;;;;;;;;;25.99;46.79;100071.13;5012524;28;6938;-71
2023/07/21 08:21:22;;;;;;;;;;;;;;;26.08;47.26;100068.28;5007641;28;7135;-71
2023/07/21 08:23:49;;;;;;;;;;;;;;;26.14;46.83;100069.91;4992214;28;7813;-71
2023/07/21 08:26:15;;;;;;;;;;;;;;;26.20;46.93;100075.03;4994805;28;6816;-71
2023/07/21 08:28:40;;;;;;;;;;;;;;;26.30;47.46;100073.94;5011792;28;7043;-71
2023/07/21 08:31:06;;;;;;;;;;;;;;;26.55;47.66;100078.63;5009181;28;6783;-71
2023/07/21 08:33:31;;;;;;;;;;;;;;;26.83;47.04;100070.09;5001765;28;7211;-72
2023/07/21 08:35:57;;;;;;;;;;;;;;;27.21;46.78;100080.53;5009528;28;7175;-71
2023/07/21 08:38:22;;;;;;;;;;;;;;;27.61;45.60;100069.88;4974400;28;6883;-72
2023/07/21 08:40:50;;;;;;;;;;;;;;;27.83;44.70;100068.38;4993453;28;6823;-71
2023/07/21 08:43:16;;;;;;;;;;;;;;;27.93;44.12;100068.09;5010383;28;6985;-71
2023/07/21 08:45:43;;;;;;;;;;;;;;;27.98;43.50;100079.34;4990948;28;6954;-72
2023/07/21 08:48:09;;;;;;;;;;;;;;;28.03;42.83;100061.63;5013007;28;6803;-72
2023/07/21 08:50:38;;;;;;;;;;;;;;;28.07;42.93;100063.25;4981582;28;6819;-72
2023/07/21 08:53:04;;;;;;;;;;;;;;;28.17;42.59;100065.59;4998123;28;7387;-72
2023/07/21 08:55:29;;;;;;;;;;;;;;;28.24;42.74;100067.19;5013725;28;7848;-72
2023/07/21 08:57:59;;;;;;;;;;;;;;;28.23;41.74;100066.31;5011750;28;7158;-71
2023/07/21 09:00:25;;;;;;;;;;;;;;;28.11;42.14;100062.28;4997280;28;8180;-72
2023/07/21 09:02:58;;;;;;;;;;;;;;;27.95;41.94;100068.91;4991213;28;7192;-72
2023/07/21 09:05:23;;;;;;;;;;;;;;;27.84;41.95;100063.94;4994937;28;6922;-72
2023/07/21 09:07:49;;;;;;;;;;;;;;;27.78;41.56;100064.97;5008106;28;6965;-71
2023/07/21 09:10:34;;;;;;;;;;;;;;;27.76;42.21;100069.44;4997769;28;6952;-70
2023/07/21 09:13:00;;;;;;;;;;;;;;;27.77;41.40;100063.25;5012996;28;7202;-71
2023/07/21 09:15:26;;;;;;;;;;;;;;;27.96;41.84;100068.00;4994664;28;7289;-71
2023/07/21 09:17:52;;;;;;;;;;;;;;;28.25;42.17;100056.59;5000878;28;7178;-71
2023/07/21 09:20:18;;;;;;;;;;;;;;;28.50;41.25;100069.00;4994941;28;7009;-71
2023/07/21 09:22:49;;;;;;;;;;;;;;;28.58;40.96;100067.88;4984400;28;7329;-71
2023/07/21 09:25:20;;;;;;;;;;;;;;;28.52;40.49;100061.03;4992572;28;7053;-71
2023/07/21 09:27:57;;;;;;;;;;;;;;;28.38;40.87;100064.97;4995969;28;8288;-71
2023/07/21 09:30:23;;;;;;;;;;;;;;;28.28;40.98;100068.81;4996323;28;7204;-71
2023/07/21 09:32:53;;;;;;;;;;;;;;;28.32;40.76;100067.81;4974431;28;7206;-71
2023/07/21 09:35:19;;;;;;;;;;;;;;;28.38;41.12;100064.97;5004506;28;7103;-71
2023/07/21 09:37:49;;;;;;;;;;;;;;;28.50;40.76;100062.88;4991079;28;7161;-72
2023/07/21 09:40:15;;;;;;;;;;;;;;;28.69;40.60;100069.28;4994385;28;6815;-71
2023/07/21 09:42:42;;;;;;;;;;;;;;;29.05;40.19;100064.59;4993974;28;6827;-70
2023/07/21 09:45:09;;;;;;;;;;;;;;;29.45;39.57;100060.56;4995972;28;8301;-70
2023/07/21 09:47:37;;;;;;;;;;;;;;;29.77;38.48;100061.19;5008115;28;6883;-70
2023/07/21 09:50:03;;;;;;;;;;;;;;;30.30;38.23;100061.81;5010958;28;6950;-69
2023/07/21 09:52:36;;;;;;;;;;;;;;;30.96;37.64;100060.06;5011197;28;7503;-70
2023/07/21 09:55:13;;;;;;;;;;;;;;;31.54;35.75;100058.44;5008441;28;6812;-70
2023/07/21 09:57:45;;;;;;;;;;;;;;;31.73;35.46;100050.50;4990957;28;7818;-70
2023/07/21 10:00:14;;;;;;;;;;;;;;;31.80;34.69;100050.22;4992706;28;6986;-70
2023/07/21 10:02:47;;;;;;;;;;;;;;;31.84;34.30;100052.69;4996358;28;6812;-70
2023/07/21 10:05:13;;;;;;;;;;;;;;;32.02;34.09;100043.94;4993063;28;7249;-70
2023/07/21 10:07:42;;;;;;;;;;;;;;;32.14;33.93;100038.06;4992563;28;7233;-70
2023/07/21 10:10:10;;;;;;;;;;;;;;;32.31;33.42;100050.50;5011896;28;6783;-70
2023/07/21 10:12:46;;;;;;;;;;;;;;;32.54;33.08;100049.38;4990842;28;6984;-69
2023/07/21 10:15:29;;;;;;;;;;;;;;;32.78;32.69;100042.91;4996265;28;6833;-69
2023/07/21 10:18:04;;;;;;;;;;;;;;;32.67;31.76;100049.63;5007798;28;6960;-69
2023/07/21 10:20:39;;;;;;;;;;;;;;;32.37;32.33;100049.38;5009977;28;7164;-70
2023/07/21 10:23:05;;;;;;;;;;;;;;;32.36;32.73;100042.34;4995110;28;6876;-70
2023/07/21 10:25:55;;;;;;;;;;;;;;;32.70;32.07;100038.00;4993501;28;6991;-69
2023/07/21 10:28:34;;;;;;;;;;;;;;;32.89;31.05;100040.59;5009847;28;8120;-70
2023/07/21 10:31:24;;;;;;;;;;;;;;;32.78;31.16;100030.53;4981206;28;6997;-69
2023/07/21 10:34:10;;;;;;;;;;;;;;;32.56;31.45;100033.41;5011534;28;9415;-70
2023/07/21 10:36:42;;;;;;;;;;;;;;;32.41;31.75;100037.69;4991037;28;7007;-69
2023/07/21 10:39:12;;;;;;;;;;;;;;;32.21;31.40;100033.31;4993955;28;7402;-70
2023/07/21 10:41:41;;;;;;;;;;;;;;;31.93;30.91;100030.19;4988804;28;6909;-69
2023/07/21 10:44:08;;;;;;;;;;;;;;;31.88;31.94;100029.56;4991017;28;6811;-70
2023/07/21 10:46:38;;;;;;;;;;;;;;;31.84;31.35;100026.22;4999178;28;7068;-70
2023/07/21 10:49:04;;;;;;;;;;;;;;;31.77;31.75;100018.56;5013540;28;6803;-70
2023/07/21 10:51:30;;;;;;;;;;;;;;;31.83;31.86;100020.97;4978388;28;7273;-70
2023/07/21 10:53:56;;;;;;;;;;;;;;;31.81;31.16;100017.53;4996593;28;6807;-69
2023/07/21 10:56:22;;;;;;;;;;;;;;;31.92;31.12;100020.53;4997744;28;6791;-70
2023/07/21 10:58:52;;;;;;;;;;;;;;;32.22;31.30;100014.69;4996997;28;6820;-70
2023/07/21 11:01:22;;;;;;;;;;;;;;;32.78;30.92;100004.00;4996782;28;6864;-70
2023/07/21 11:03:48;;;;;;;;;;;;;;;33.22;30.19;99999.09;4993659;28;6895;-70
2023/07/21 11:06:14;;;;;;;;;;;;;;;33.58;29.86;99999.91;4990759;28;7180;-70
2023/07/21 11:08:40;;;;;;;;;;;;;;;33.84;29.27;99994.91;4991988;28;6832;-70
2023/07/21 11:11:08;;;;;;;;;;;;;;;34.09;28.81;99993.56;4993188;28;6807;-70
2023/07/21 11:13:33;;;;;;;;;;;;;;;34.19;29.28;99990.28;4992070;28;7480;-70
2023/07/21 11:16:00;;;;;;;;;;;;;;;34.04;28.39;100001.78;4995394;28;6788;-70
2023/07/21 11:18:27;;;;;;;;;;;;;;;33.52;28.25;100004.59;4995464;28;7004;-70
2023/07/21 11:20:54;;;;;;;;;;;;;;;32.91;28.81;100011.31;5009532;28;6823;-69
2023/07/21 11:23:23;;;;;;;;;;;;;;;32.19;28.89;100003.38;4999610;28;7196;-71
2023/07/21 11:26:06;;;;;;;;;;;;;;;31.43;29.93;100007.75;4999256;28;7177;-71
2023/07/21 11:28:33;;;;;;;;;;;;;;;30.91;29.88;100001.19;4997383;28;6971;-71
2023/07/21 11:31:00;;;;;;;;;;;;;;;30.57;30.27;100000.81;5000028;28;7248;-71
2023/07/21 11:33:47;;;;;;;;;;;;;;;30.60;30.75;99997.19;4997869;28;6796;-71
2023/07/21 11:36:17;;;;;;;;;;;;;;;31.26;30.77;99993.50;4995552;28;6986;-71
2023/07/21 11:38:57;;;;;;;;;;;;;;;32.19;30.01;99991.00;4979859;28;7173;-70
2023/07/21 11:41:39;;;;;;;;;;;;;;;32.95;28.74;99995.19;4997823;28;6808;-70
2023/07/21 11:44:14;;;;;;;;;;;;;;;33.42;28.74;99986.56;4993251;28;6856;-72
2023/07/21 11:46:41;;;;;;;;;;;;;;;33.53;27.74;99989.53;4997072;28;6816;-71
2023/07/21 11:49:10;;;;;;;;;;;;;;;33.55;27.90;99990.28;5010870;28;6937;-71
2023/07/21 11:51:46;;;;;;;;;;;;;;;33.97;27.41;99990.63;4994967;28;6873;-70
2023/07/21 11:54:28;;;;;;;;;;;;;;;34.55;27.63;99990.03;4992388;28;6815;-71
2023/07/21 11:56:56;;;;;;;;;;;;;;;35.18;26.66;99986.25;4989845;28;6923;-71
2023/07/21 11:59:23;;;;;;;;;;;;;;;35.68;24.66;99980.50;4988310;28;7253;-71
2023/07/21 12:01:49;;;;;;;;;;;;;;;35.95;25.89;99982.31;5008007;28;7042;-72
2023/07/21 12:04:14;;;;;;;;;;;;;;;36.22;25.59;99986.81;4994548;28;6783;-71
2023/07/21 12:06:41;;;;;;;;;;;;;;;36.41;23.93;99986.44;4994375;28;7094;-71
2023/07/21 12:09:07;;;;;;;;;;;;;;;36.50;23.62;99998.28;4996901;28;6827;-71
2023/07/21 12:11:37;;;;;;;;;;;;;;;36.74;24.09;99978.91;4995692;28;7376;-70
2023/07/21 12:14:03;;;;;;;;;;;;;;;36.85;23.44;99991.53;4992844;28;6799;-71
2023/07/21 12:16:29;;;;;;;;;;;;;;;36.82;23.91;100002.44;5007239;28;6792;-70
2023/07/21 12:18:56;;;;;;;;;;;;;;;36.71;23.82;100007.66;4978258;28;6916;-70
2023/07/21 12:21:21;;;;;;;;;;;;;;;35.91;23.20;100033.28;5006790;28;7243;-71
2023/07/21 12:23:47;;;;;;;;;;;;;;;34.62;24.30;100044.59;4991747;28;6971;-71
2023/07/21 12:26:12;;;;;;;;;;;;;;;33.05;24.52;100072.53;4988929;28;6975;-71
2023/07/21 12:28:38;;;;;;;;;;;;;;;31.50;26.45;100077.19;4978891;28;7490;-70
2023/07/21 12:31:04;;;;;;;;;;;;;;;30.01;27.07;100084.91;4996349;28;6880;-71
2023/07/21 12:33:29;;;;;;;;;;;;;;;28.74;28.53;100076.16;5011125;28;6852;-71
2023/07/21 12:35:55;;;;;;;;;;;;;;;27.67;29.54;100090.75;4992732;28;7147;-71
2023/07/21 12:38:21;;;;;;;;;;;;;;;26.72;30.87;100104.50;4986870;28;6831;-70
2023/07/21 12:40:47;;;;;;;;;;;;;;;25.97;31.74;100092.13;4992880;28;6958;-70
2023/07/21 12:43:12;;;;;;;;;;;;;;;25.34;32.82;100087.19;4987917;28;7284;-70
2023/07/21 12:45:39;;;;;;;;;;;;;;;24.87;33.98;100100.25;4971069;28;8408;-71
2023/07/21 12:48:05;;;;;;;;;;;;;;;24.46;34.57;100104.31;5005476;28;6886;-71